Time;durP1;ratioP1;P1;durP2;ratioP2;P2;SDS_P1;SDS_P2;PMS_P1;PMS_P2;Temp;Humidity;BMP_temperature;BMP_pressure;BME280_temperature;BME280_humidity;BME280_pressure;Samples;Min_cycle;Max_cycle;Signal;HPM_P1;HPM_P2
2023/09/25 00:02:00;;;;;;;17.67;11.07;;;;;;;10.88;100.00;102038.81;5031100;28;20121;-87
2023/09/25 00:04:28;;;;;;;18.80;11.40;;;;;;;10.85;100.00;102036.59;5028546;28;20034;-87
2023/09/25 00:06:54;;;;;;;17.80;11.55;;;;;;;10.82;100.00;102037.16;5028662;28;20499;-86
2023/09/25 00:09:19;;;;;;;17.95;11.23;;;;;;;10.83;100.00;102040.75;5015030;28;20029;-88
2023/09/25 00:11:45;;;;;;;17.63;10.98;;;;;;;10.81;100.00;102049.34;5033366;28;20083;-88
2023/09/25 00:14:10;;;;;;;18.75;11.30;;;;;;;10.81;100.00;102042.97;5032967;28;20030;-88
2023/09/25 00:16:36;;;;;;;17.38;12.10;;;;;;;10.78;100.00;102049.91;5036244;28;20021;-89
2023/09/25 00:19:03;;;;;;;16.75;10.85;;;;;;;10.78;100.00;102044.38;5035380;28;20040;-88
2023/09/25 00:21:28;;;;;;;17.35;10.75;;;;;;;10.77;100.00;102040.75;5037036;28;20116;-88
2023/09/25 00:23:55;;;;;;;17.58;10.65;;;;;;;10.73;100.00;102047.97;5035094;28;20105;-88
2023/09/25 00:26:21;;;;;;;16.80;10.57;;;;;;;10.73;100.00;102049.88;5033195;28;20468;-89
2023/09/25 00:28:46;;;;;;;18.67;11.10;;;;;;;10.71;100.00;102047.41;5028092;28;20068;-88
2023/09/25 00:31:11;;;;;;;16.88;11.05;;;;;;;10.69;100.00;102044.09;5032057;28;20026;-88
2023/09/25 00:33:37;;;;;;;18.45;11.45;;;;;;;10.68;100.00;102047.97;5037022;28;20033;-88
2023/09/25 00:36:04;;;;;;;17.83;11.32;;;;;;;10.63;100.00;102036.91;5018488;28;20044;-89
2023/09/25 00:38:34;;;;;;;17.67;11.50;;;;;;;10.66;100.00;102033.59;5010521;28;20152;-87
2023/09/25 00:41:00;;;;;;;15.82;10.57;;;;;;;10.64;100.00;102046.88;5035107;28;20564;-88
2023/09/25 00:43:28;;;;;;;17.60;11.48;;;;;;;10.61;100.00;102041.88;5036985;28;20061;-88
2023/09/25 00:45:54;;;;;;;18.88;11.50;;;;;;;10.60;100.00;102040.22;5037649;28;20022;-89
2023/09/25 00:48:28;;;;;;;17.58;11.43;;;;;;;10.61;100.00;102039.09;5019057;28;20033;-88
2023/09/25 00:50:57;;;;;;;;;;;;;;;10.67;100.00;102045.47;5035321;28;20040;-88
2023/09/25 00:53:25;;;;;;;19.92;11.70;;;;;;;10.60;100.00;102042.97;5020690;28;19965;-88
2023/09/25 00:55:51;;;;;;;16.42;10.90;;;;;;;10.59;100.00;102041.31;5040306;28;20021;-88
2023/09/25 00:58:17;;;;;;;18.08;11.60;;;;;;;10.57;100.00;102041.59;5019338;28;20421;-88
2023/09/25 01:00:43;;;;;;;17.65;11.00;;;;;;;10.57;100.00;102038.84;5042830;28;20033;-87
2023/09/25 01:03:09;;;;;;;17.70;10.77;;;;;;;10.55;100.00;102043.81;5053545;28;20129;-88
2023/09/25 01:05:37;;;;;;;17.55;11.27;;;;;;;10.55;100.00;102048.53;5036545;28;20361;-88
2023/09/25 01:08:03;;;;;;;17.48;11.20;;;;;;;10.57;100.00;102043.56;5028198;28;20030;-88
2023/09/25 01:10:28;;;;;;;16.33;10.82;;;;;;;10.56;100.00;102052.97;5036981;28;20029;-88
2023/09/25 01:12:54;;;;;;;20.33;11.48;;;;;;;10.55;100.00;102059.59;5039827;28;20029;-88
2023/09/25 01:15:22;;;;;;;18.65;11.55;;;;;;;10.54;100.00;102057.94;5040723;28;20029;-88
2023/09/25 01:17:48;;;;;;;16.98;11.68;;;;;;;10.53;100.00;102057.09;5042399;28;20034;-89
2023/09/25 01:20:18;;;;;;;18.10;11.90;;;;;;;10.46;100.00;102051.00;5042574;28;20051;-88
2023/09/25 01:22:46;;;;;;;17.20;11.50;;;;;;;10.48;100.00;102048.78;5044279;28;20108;-89
2023/09/25 01:25:12;;;;;;;18.00;11.90;;;;;;;10.46;100.00;102051.00;5025405;28;20084;-90
2023/09/25 01:27:39;;;;;;;18.23;10.90;;;;;;;10.45;100.00;102049.34;5040903;28;20109;-88
2023/09/25 01:30:08;;;;;;;17.05;11.32;;;;;;;10.44;100.00;102044.91;5035039;28;20030;-87
2023/09/25 01:32:34;;;;;;;17.25;10.90;;;;;;;10.41;100.00;102042.72;5037823;28;20064;-87
2023/09/25 01:35:01;;;;;;;17.20;11.20;;;;;;;10.38;100.00;102040.50;5035021;28;20025;-87
2023/09/25 01:37:27;;;;;;;16.92;10.55;;;;;;;10.39;100.00;102048.50;5025223;28;20108;-88
2023/09/25 01:39:52;;;;;;;17.48;11.18;;;;;;;10.36;100.00;102043.50;5026899;28;20037;-87
2023/09/25 01:42:18;;;;;;;17.23;11.63;;;;;;;10.34;100.00;102037.41;5035797;28;20377;-88
2023/09/25 01:44:44;;;;;;;17.60;11.60;;;;;;;10.34;100.00;102042.94;5035621;28;20041;-87
2023/09/25 01:47:09;;;;;;;16.95;11.30;;;;;;;10.30;100.00;102048.22;5033252;28;20056;-87
2023/09/25 01:49:34;;;;;;;19.05;12.20;;;;;;;10.28;100.00;102036.56;5036919;28;20068;-86
2023/09/25 01:52:07;;;;;;;19.05;12.07;;;;;;;10.27;100.00;102034.09;5036574;28;20030;-86
2023/09/25 01:54:35;;;;;;;19.08;12.20;;;;;;;10.25;100.00;102050.13;5042546;28;20021;-87
2023/09/25 01:57:02;;;;;;;17.75;11.32;;;;;;;10.20;100.00;102042.66;5050801;28;20082;-87
2023/09/25 01:59:28;;;;;;;18.90;11.52;;;;;;;10.18;100.00;102042.09;5051123;28;20068;-87
2023/09/25 02:01:53;;;;;;;17.58;11.18;;;;;;;10.18;100.00;102041.28;5053391;28;20043;-87
2023/09/25 02:04:18;;;;;;;18.52;11.75;;;;;;;10.13;100.00;102033.81;5053994;28;20188;-87
2023/09/25 02:06:45;;;;;;;19.98;12.65;;;;;;;10.15;100.00;102035.19;5048427;28;20069;-89
2023/09/25 02:09:11;;;;;;;17.52;11.73;;;;;;;10.12;100.00;102043.19;5046351;28;20045;-87
2023/09/25 02:11:37;;;;;;;16.30;11.27;;;;;;;10.07;100.00;102035.72;5038313;28;20010;-87
2023/09/25 02:14:02;;;;;;;17.83;11.70;;;;;;;10.07;100.00;102041.25;5054150;28;20088;-88
2023/09/25 02:16:29;;;;;;;17.80;11.82;;;;;;;9.97;100.00;102025.47;5038835;28;20022;-88
2023/09/25 02:18:56;;;;;;;18.50;11.90;;;;;;;10.02;100.00;102041.22;5056326;28;20025;-87
2023/09/25 02:21:22;;;;;;;17.98;12.20;;;;;;;10.01;100.00;102030.44;5041560;28;20030;-88
2023/09/25 02:23:48;;;;;;;18.45;11.65;;;;;;;9.98;100.00;102029.88;5044209;28;20080;-87
2023/09/25 02:26:15;;;;;;;17.60;11.63;;;;;;;9.92;100.00;102022.69;5034320;28;20041;-88
2023/09/25 02:28:40;;;;;;;17.80;10.93;;;;;;;9.93;100.00;102026.28;5039249;28;20479;-88
2023/09/25 02:31:07;;;;;;;17.73;11.30;;;;;;;9.92;100.00;102025.47;5025601;28;20033;-88
2023/09/25 02:33:32;;;;;;;18.73;12.05;;;;;;;9.90;100.00;102026.84;5032453;28;20025;-88
2023/09/25 02:36:11;;;;;;;17.67;11.70;;;;;;;9.88;100.00;102037.34;5029376;28;20413;-88
2023/09/25 02:38:36;;;;;;;19.48;12.63;;;;;;;9.85;100.00;102033.19;5031167;28;20030;-88
2023/09/25 02:41:02;;;;;;;17.35;11.48;;;;;;;9.81;100.00;102027.38;5030978;28;20061;-88
2023/09/25 02:43:27;;;;;;;18.30;12.32;;;;;;;9.77;100.00;102017.13;5020548;28;20437;-88
2023/09/25 02:45:53;;;;;;;18.80;12.82;;;;;;;9.83;100.00;102030.69;5023729;28;20034;-88
2023/09/25 02:48:19;;;;;;;19.23;13.10;;;;;;;9.81;100.00;102018.25;5034033;28;20025;-87
2023/09/25 02:50:48;;;;;;;18.63;11.73;;;;;;;9.81;100.00;102032.91;5030668;28;20037;-89
2023/09/25 02:53:13;;;;;;;18.23;12.30;;;;;;;9.80;100.00;102033.16;5041045;28;20037;-88
2023/09/25 02:55:39;;;;;;;19.02;12.73;;;;;;;9.73;100.00;102024.28;5045152;28;20065;-89
2023/09/25 02:58:04;;;;;;;19.55;13.38;;;;;;;9.75;100.00;102027.63;5027120;28;20065;-88
2023/09/25 03:00:30;;;;;;;18.05;12.70;;;;;;;9.76;100.00;102027.34;5036388;28;20034;-89
2023/09/25 03:02:58;;;;;;;17.75;12.38;;;;;;;9.71;100.00;102030.09;5032542;28;20030;-88
2023/09/25 03:05:24;;;;;;;18.50;12.57;;;;;;;9.71;100.00;102023.72;5016680;28;20027;-88
2023/09/25 03:07:50;;;;;;;19.35;12.27;;;;;;;9.70;100.00;102028.44;5006852;28;20041;-89
2023/09/25 03:10:16;;;;;;;17.40;11.70;;;;;;;9.72;100.00;102034.53;5033800;28;20029;-88
2023/09/25 03:12:41;;;;;;;18.30;12.73;;;;;;;9.68;100.00;102025.94;5012742;28;20031;-88
2023/09/25 03:15:08;;;;;;;19.75;12.52;;;;;;;9.69;100.00;102029.53;5034608;28;20018;-88
2023/09/25 03:17:38;;;;;;;19.05;12.00;;;;;;;9.68;100.00;102028.69;5029524;28;20382;-88
2023/09/25 03:20:14;;;;;;;18.63;11.65;;;;;;;9.69;100.00;102037.84;5005573;28;20030;-88
2023/09/25 03:22:39;;;;;;;19.67;12.45;;;;;;;9.65;100.00;102029.25;5029555;28;20034;-88
2023/09/25 03:25:05;;;;;;;19.33;12.57;;;;;;;9.67;100.00;102027.06;5023261;28;20141;-87
2023/09/25 03:27:31;;;;;;;18.83;12.32;;;;;;;9.66;100.00;102027.31;5017500;28;20017;-88
2023/09/25 03:29:57;;;;;;;18.77;12.15;;;;;;;9.65;100.00;102029.25;5024387;28;20117;-88
2023/09/25 03:32:22;;;;;;;18.10;12.38;;;;;;;9.61;100.00;102022.59;5022951;28;20056;-88
2023/09/25 03:34:48;;;;;;;18.65;12.35;;;;;;;9.61;100.00;102024.53;5025479;28;20033;-88
2023/09/25 03:37:13;;;;;;;18.55;12.50;;;;;;;9.56;100.00;102018.97;5028665;28;20200;-88
2023/09/25 03:39:38;;;;;;;18.08;12.50;;;;;;;9.59;100.00;102024.78;5027023;28;20037;-88
2023/09/25 03:42:04;;;;;;;18.73;12.25;;;;;;;9.56;100.00;102021.75;5023330;28;20025;-88
2023/09/25 03:44:29;;;;;;;18.10;12.20;;;;;;;9.58;100.00;102020.41;5016562;28;20136;-88
2023/09/25 03:46:55;;;;;;;18.75;11.82;;;;;;;9.57;100.00;102029.78;5003400;28;20034;-87
2023/09/25 03:49:20;;;;;;;19.13;12.48;;;;;;;9.51;100.00;102020.63;5032132;28;20029;-88
2023/09/25 03:51:46;;;;;;;18.17;12.50;;;;;;;9.51;100.00;102020.63;5026761;28;20108;-87
2023/09/25 03:54:11;;;;;;;18.00;12.38;;;;;;;9.54;100.00;102032.25;5011972;28;20026;-88
2023/09/25 03:56:37;;;;;;;18.30;12.65;;;;;;;9.54;100.00;102041.38;5022741;28;20108;-87
2023/09/25 03:59:03;;;;;;;18.50;12.57;;;;;;;9.51;100.00;102031.69;5022501;28;20112;-88
2023/09/25 04:01:29;;;;;;;17.70;11.93;;;;;;;9.50;100.00;102032.78;5030188;28;20409;-88
2023/09/25 04:03:54;;;;;;;18.65;13.20;;;;;;;9.53;100.00;102028.66;5034473;28;20055;-88
2023/09/25 04:06:19;;;;;;;19.15;12.85;;;;;;;9.54;100.00;102033.06;5030578;28;20018;-88
2023/09/25 04:08:45;;;;;;;17.52;12.20;;;;;;;9.49;100.00;102031.13;5013735;28;20039;-87
2023/09/25 04:11:11;;;;;;;19.27;12.63;;;;;;;9.53;100.00;102031.41;5029950;28;20107;-87
2023/09/25 04:13:37;;;;;;;17.90;12.50;;;;;;;9.52;100.00;102036.13;5017189;28;20160;-88
2023/09/25 04:16:03;;;;;;;18.20;12.63;;;;;;;9.54;100.00;102035.03;5035503;28;20068;-87
2023/09/25 04:18:31;;;;;;;18.02;12.60;;;;;;;9.51;100.00;102037.22;5030954;28;20025;-88
2023/09/25 04:21:02;;;;;;;20.17;13.38;;;;;;;9.54;100.00;102043.31;5017719;28;20494;-88
2023/09/25 04:23:28;;;;;;;19.00;13.20;;;;;;;9.52;100.00;102033.34;5022469;28;20040;-88
2023/09/25 04:26:00;;;;;;;18.60;12.88;;;;;;;9.49;100.00;102038.59;5026812;28;20069;-88
2023/09/25 04:28:28;;;;;;;18.70;12.95;;;;;;;9.47;100.00;102041.59;5039498;28;20032;-88
2023/09/25 04:30:54;;;;;;;18.98;13.32;;;;;;;9.45;100.00;102035.50;5035307;28;20057;-88
2023/09/25 04:33:20;;;;;;;18.70;13.18;;;;;;;9.45;100.00;102032.75;5039563;28;20029;-87
2023/09/25 04:35:45;;;;;;;19.55;13.55;;;;;;;9.43;100.00;102031.38;5051157;28;20014;-87
2023/09/25 04:38:12;;;;;;;18.30;13.60;;;;;;;9.39;100.00;102038.53;5047169;28;20041;-87
2023/09/25 04:40:38;;;;;;;19.65;13.00;;;;;;;9.42;100.00;102047.13;5036588;28;20061;-88
2023/09/25 04:43:04;;;;;;;20.52;13.95;;;;;;;9.42;100.00;102049.88;5018988;28;20369;-87
2023/09/25 04:45:30;;;;;;;19.25;13.95;;;;;;;9.40;100.00;102051.25;5022361;28;20037;-88
2023/09/25 04:47:56;;;;;;;18.42;13.18;;;;;;;9.39;100.00;102050.41;5024553;28;20373;-87
2023/09/25 04:50:25;;;;;;;18.20;13.27;;;;;;;9.39;100.00;102050.41;5011874;28;20030;-87
2023/09/25 04:52:51;;;;;;;19.30;13.35;;;;;;;9.38;100.00;102051.50;5013824;28;20144;-87
2023/09/25 04:55:17;;;;;;;19.08;13.20;;;;;;;9.35;100.00;102047.34;5017581;28;20038;-87
2023/09/25 04:57:44;;;;;;;20.60;13.38;;;;;;;9.38;100.00;102056.22;5033759;28;20029;-88
2023/09/25 05:00:26;;;;;;;18.52;13.13;;;;;;;9.35;100.00;102057.59;5025652;28;20064;-87
2023/09/25 05:02:55;;;;;;;19.45;13.38;;;;;;;9.33;100.00;102046.78;5014299;28;20053;-88
2023/09/25 05:05:21;;;;;;;18.52;13.40;;;;;;;9.35;100.00;102057.59;5025426;28;20037;-88
2023/09/25 05:07:50;;;;;;;19.23;13.05;;;;;;;9.32;100.00;102055.34;5032459;28;20037;-86
2023/09/25 05:10:25;;;;;;;18.63;13.02;;;;;;;9.23;100.00;102038.44;5014271;28;20048;-88
2023/09/25 05:12:52;;;;;;;20.10;13.73;;;;;;;9.27;100.00;102052.53;5030971;28;20053;-87
2023/09/25 05:15:18;;;;;;;19.50;13.20;;;;;;;9.29;100.00;102053.97;5031817;28;20030;-88
2023/09/25 05:17:45;;;;;;;18.52;12.65;;;;;;;9.30;100.00;102055.63;5025014;28;20478;-88
2023/09/25 05:20:16;;;;;;;17.95;12.55;;;;;;;9.32;100.00;102058.94;5018328;28;20357;-87
2023/09/25 05:22:54;;;;;;;19.27;13.50;;;;;;;9.31;100.00;102061.97;5034204;28;20033;-87
2023/09/25 05:25:23;;;;;;;20.35;13.57;;;;;;;9.34;100.00;102066.97;5033891;28;20046;-86
2023/09/25 05:27:50;;;;;;;19.60;13.20;;;;;;;9.35;100.00;102060.34;5018330;28;20033;-90
2023/09/25 05:30:17;;;;;;;19.00;13.32;;;;;;;9.38;100.00;102067.25;5036826;28;20398;-90
2023/09/25 05:32:52;;;;;;;18.20;13.20;;;;;;;9.38;100.00;102068.06;5042042;28;20113;-89
2023/09/25 05:35:19;;;;;;;17.90;12.95;;;;;;;9.36;100.00;102053.69;5032106;28;20098;-88
2023/09/25 05:37:45;;;;;;;17.95;11.93;;;;;;;9.39;100.00;102058.69;5030952;28;20025;-89
2023/09/25 05:40:12;;;;;;;17.70;10.90;;;;;;;9.43;100.00;102058.97;5029275;28;20046;-90
2023/09/25 05:42:42;;;;;;;18.20;11.50;;;;;;;9.38;100.00;102057.03;5030176;28;20527;-88
2023/09/25 05:45:11;;;;;;;20.92;11.80;;;;;;;9.44;100.00;102075.31;5014974;28;20018;-89
2023/09/25 05:47:38;;;;;;;17.85;11.38;;;;;;;9.43;100.00;102073.63;5030302;28;20069;-90
2023/09/25 05:50:06;;;;;;;17.17;10.98;;;;;;;9.50;100.00;102070.63;5018012;28;20026;-88
2023/09/25 05:52:37;;;;;;;17.80;11.07;;;;;;;9.54;100.00;102070.94;5015025;28;20054;-86
2023/09/25 05:55:07;;;;;;;16.80;10.93;;;;;;;9.59;100.00;102068.19;5013256;28;20385;-88
2023/09/25 05:57:32;;;;;;;17.08;10.85;;;;;;;9.64;100.00;102068.19;5012056;28;20022;-89
2023/09/25 06:00:03;;;;;;;19.17;10.85;;;;;;;9.66;100.00;102057.69;5014764;28;20144;-88
2023/09/25 06:02:33;;;;;;;18.95;11.80;;;;;;;9.74;100.00;102065.47;5019903;28;20030;-89
2023/09/25 06:04:58;;;;;;;18.38;11.35;;;;;;;9.78;100.00;102074.91;5021217;28;20030;-89
2023/09/25 06:07:24;;;;;;;16.58;11.10;;;;;;;9.83;100.00;102071.31;5018568;28;20446;-88
2023/09/25 06:09:49;;;;;;;17.30;10.82;;;;;;;9.87;100.00;102074.38;5015668;28;20026;-88
2023/09/25 06:12:16;;;;;;;16.52;10.77;;;;;;;9.89;100.00;102066.63;5015354;28;20030;-89
2023/09/25 06:14:42;;;;;;;19.27;11.15;;;;;;;10.01;100.00;102082.97;5019242;28;20022;-88
2023/09/25 06:17:09;;;;;;;18.55;10.98;;;;;;;10.05;100.00;102073.88;5034026;28;20030;-88
2023/09/25 06:19:36;;;;;;;19.60;11.30;;;;;;;10.13;100.00;102084.38;5027010;28;20128;-88
2023/09/25 06:22:02;;;;;;;17.38;11.05;;;;;;;10.19;100.00;102085.25;5015861;28;20120;-88
2023/09/25 06:24:33;;;;;;;20.00;11.50;;;;;;;10.25;100.00;102072.25;5017331;28;20033;-88
2023/09/25 06:26:59;;;;;;;18.10;11.50;;;;;;;10.32;100.00;102081.09;5019670;28;20085;-89
2023/09/25 06:29:25;;;;;;;18.20;11.23;;;;;;;10.43;100.00;102084.78;5015454;28;20026;-89
2023/09/25 06:31:54;;;;;;;19.38;11.60;;;;;;;10.52;100.00;102079.50;5019827;28;20635;-88
2023/09/25 06:34:19;;;;;;;17.33;11.30;;;;;;;10.58;100.00;102075.66;5016978;28;20029;-88
2023/09/25 06:36:45;;;;;;;21.00;11.30;;;;;;;10.70;100.00;102078.16;5019011;28;20022;-90
2023/09/25 06:39:10;;;;;;;17.85;11.52;;;;;;;10.79;100.00;102078.41;5019178;28;20037;-90
2023/09/25 06:41:37;;;;;;;20.17;12.02;;;;;;;10.89;100.00;102082.00;5018891;28;20406;-89
2023/09/25 06:44:04;;;;;;;16.65;10.98;;;;;;;11.00;100.00;102088.38;5018998;28;20121;-88
2023/09/25 06:46:30;;;;;;;17.05;10.98;;;;;;;11.12;100.00;102092.78;5026861;28;20089;-89
2023/09/25 06:48:55;;;;;;;17.48;11.35;;;;;;;11.18;100.00;102084.19;5026186;28;20037;-90
2023/09/25 06:51:22;;;;;;;19.15;11.77;;;;;;;11.26;100.00;102076.41;5028028;28;20080;-90
2023/09/25 06:53:47;;;;;;;19.00;11.77;;;;;;;11.36;100.00;102084.72;5032443;28;20456;-90
2023/09/25 06:56:14;;;;;;;18.20;11.48;;;;;;;11.43;100.00;102085.22;5038967;28;20021;-89
2023/09/25 06:58:40;;;;;;;18.63;11.70;;;;;;;11.53;100.00;102082.44;5037966;28;20499;-89
2023/09/25 07:01:06;;;;;;;19.30;11.75;;;;;;;11.64;100.00;102082.41;5038441;28;20026;-91
2023/09/25 07:03:32;;;;;;;18.80;11.40;;;;;;;11.75;100.00;102085.94;5036296;28;20029;-89
2023/09/25 07:05:58;;;;;;;18.65;11.60;;;;;;;11.82;100.00;102070.66;5037866;28;20446;-90
2023/09/25 07:08:27;;;;;;;18.33;11.77;;;;;;;11.96;100.00;102081.97;5037515;28;20036;-91
2023/09/25 07:10:58;;;;;;;19.70;11.88;;;;;;;12.12;100.00;102081.91;5039157;28;20119;-91
2023/09/25 07:13:23;;;;;;;18.75;12.20;;;;;;;12.23;100.00;102082.69;5040898;28;20029;-91
2023/09/25 07:15:49;;;;;;;18.40;12.00;;;;;;;12.33;100.00;102086.22;5043998;28;20090;-89
2023/09/25 07:18:14;;;;;;;18.10;11.55;;;;;;;12.45;100.00;102087.81;5030415;28;20022;-89
2023/09/25 07:20:41;;;;;;;18.23;11.52;;;;;;;12.58;100.00;102095.47;5051527;28;20059;-90
2023/09/25 07:23:07;;;;;;;17.02;11.52;;;;;;;12.68;100.00;102086.25;5038571;28;20101;-92
2023/09/25 07:25:33;;;;;;;18.85;12.13;;;;;;;12.81;100.00;102087.53;5055337;28;20058;-89
2023/09/25 07:27:59;;;;;;;18.42;12.23;;;;;;;12.86;99.78;102079.13;5050332;28;20029;-91
2023/09/25 07:30:24;;;;;;;18.35;12.05;;;;;;;12.99;99.02;102080.41;5037651;28;20034;-90
2023/09/25 07:32:49;;;;;;;18.00;11.73;;;;;;;13.11;99.01;102078.06;5053825;28;20033;-87
2023/09/25 07:35:15;;;;;;;17.85;11.50;;;;;;;13.21;97.39;102074.38;5030608;28;20029;-88
2023/09/25 07:37:44;;;;;;;17.63;11.63;;;;;;;13.35;96.85;102084.78;5028735;28;20361;-89
2023/09/25 07:40:14;;;;;;;17.95;11.88;;;;;;;13.43;96.47;102075.00;5034361;28;20112;-86
2023/09/25 07:42:48;;;;;;;17.45;11.50;;;;;;;13.56;95.55;102086.22;5024637;28;20072;-91
2023/09/25 07:45:22;;;;;;;17.98;11.40;;;;;;;13.65;nan;102082.78;5031617;28;20038;-85
2023/09/25 07:47:48;;;;;;;18.45;11.40;;;;;;;13.69;92.11;102073.56;5019639;28;20026;-86
2023/09/25 07:50:14;;;;;;;18.17;11.75;;;;;;;13.81;92.93;102077.88;5024566;28;20060;-83
2023/09/25 07:52:42;;;;;;;18.70;11.80;;;;;;;13.88;91.55;102083.88;5047225;28;20033;-82
2023/09/25 07:55:11;;;;;;;18.13;11.23;;;;;;;13.93;92.63;102077.44;5044952;28;20055;-84
2023/09/25 07:57:40;;;;;;;18.10;12.07;;;;;;;13.97;92.11;102072.94;5030325;28;20432;-85
2023/09/25 08:00:37;;;;;;;17.23;11.27;;;;;;;14.12;93.87;102085.81;5009319;28;20030;-84
2023/09/25 08:02:59;;;;;;;17.75;10.80;;;;;;;14.20;92.41;102079.56;5011633;28;20034;-83
2023/09/25 08:05:28;;;;;;;17.10;11.18;;;;;;;14.29;92.65;102088.91;5014585;28;20026;-83
2023/09/25 08:08:20;;;;;;;18.65;11.48;;;;;;;14.38;92.87;102094.59;5013969;28;20124;-84
2023/09/25 08:10:48;;;;;;;18.17;11.88;;;;;;;14.45;90.94;102092.25;5014043;28;20056;-87
2023/09/25 08:13:18;;;;;;;18.33;12.07;;;;;;;14.50;90.86;102088.56;5012562;28;20501;-87
2023/09/25 08:15:43;;;;;;;18.02;11.35;;;;;;;14.56;88.59;102092.09;5014033;28;20025;-87
2023/09/25 08:18:11;;;;;;;17.40;11.23;;;;;;;14.58;88.35;102087.91;5014707;28;20346;-85
2023/09/25 08:20:39;;;;;;;17.05;10.77;;;;;;;14.62;87.27;102085.31;5014905;28;20056;-87
2023/09/25 08:23:05;;;;;;;16.35;10.48;;;;;;;14.65;87.06;102095.84;5013493;28;20109;-84
2023/09/25 08:25:32;;;;;;;18.00;10.80;;;;;;;14.64;86.65;102086.66;5013558;28;20038;-88
2023/09/25 08:27:58;;;;;;;17.60;11.20;;;;;;;14.79;87.17;102087.56;5012840;28;20042;-88
2023/09/25 08:30:23;;;;;;;18.08;10.60;;;;;;;14.88;86.87;102090.50;5014802;28;20093;-86
2023/09/25 08:32:50;;;;;;;17.15;11.13;;;;;;;14.90;84.72;102089.03;5025356;28;20036;-86
2023/09/25 08:35:15;;;;;;;17.25;11.13;;;;;;;14.92;84.61;102083.19;5016006;28;20044;-87
2023/09/25 08:37:42;;;;;;;18.02;11.70;;;;;;;14.97;85.13;102086.69;5000492;28;20212;-88
2023/09/25 08:40:09;;;;;;;19.00;10.90;;;;;;;15.08;86.26;102075.34;5034033;28;20033;-87
2023/09/25 08:42:37;;;;;;;17.92;11.40;;;;;;;15.17;84.47;102079.09;5032684;28;20560;-86
2023/09/25 08:45:05;;;;;;;19.50;10.82;;;;;;;15.34;84.65;102066.53;5033768;28;20037;-88
2023/09/25 08:47:32;;;;;;;16.77;10.75;;;;;;;15.46;84.07;102060.44;5016220;28;20077;-89
2023/09/25 08:49:58;;;;;;;18.50;11.50;;;;;;;15.56;82.31;102068.59;5032351;28;20037;-89
2023/09/25 08:52:23;;;;;;;18.52;11.52;;;;;;;15.65;80.59;102071.47;5020697;28;20121;-87
2023/09/25 08:54:51;;;;;;;17.95;10.85;;;;;;;15.77;81.99;102060.59;5014695;28;20058;-86
2023/09/25 08:57:18;;;;;;;18.00;11.20;;;;;;;15.92;81.20;102056.69;5016226;28;20032;-87
2023/09/25 08:59:46;;;;;;;17.20;10.95;;;;;;;16.04;80.48;102067.31;5032207;28;20081;-87
2023/09/25 09:02:16;;;;;;;16.35;10.85;;;;;;;16.10;80.00;102068.00;5032843;28;20092;-86
2023/09/25 09:04:46;;;;;;;17.63;10.95;;;;;;;16.14;80.17;102067.06;5017932;28;20034;-88
2023/09/25 09:07:14;;;;;;;18.30;10.90;;;;;;;16.20;79.58;102071.38;5033966;28;20092;-87
2023/09/25 09:09:40;;;;;;;17.42;11.00;;;;;;;16.27;79.24;102076.53;5032488;28;20041;-88
2023/09/25 09:12:07;;;;;;;17.10;10.75;;;;;;;16.36;79.34;102079.44;5034445;28;20385;-86
2023/09/25 09:14:43;;;;;;;17.05;11.10;;;;;;;16.39;78.87;102067.59;5032799;28;20053;-87
2023/09/25 09:17:11;;;;;;;18.02;10.95;;;;;;;16.51;79.60;102061.47;5033062;28;20254;-87
2023/09/25 09:19:57;;;;;;;18.20;11.30;;;;;;;16.62;79.45;102065.66;5032165;28;20548;-87
2023/09/25 09:22:25;;;;;;;18.15;11.10;;;;;;;16.64;77.54;102059.75;5009035;28;20491;-89
2023/09/25 09:24:56;;;;;;;16.75;11.00;;;;;;;16.76;78.93;102059.16;5032267;28;20142;-87
2023/09/25 09:27:24;;;;;;;16.10;10.70;;;;;;;16.86;78.43;102056.09;5034769;28;20040;-90
2023/09/25 09:29:52;;;;;;;17.00;10.85;;;;;;;16.96;76.85;102057.81;5030582;28;20033;-87
2023/09/25 09:32:19;;;;;;;17.70;10.77;;;;;;;16.97;76.76;102060.31;5032438;28;20034;-89
2023/09/25 09:34:46;;;;;;;16.20;10.82;;;;;;;16.93;77.03;102055.66;5037946;28;20030;-89
2023/09/25 09:37:13;;;;;;;16.98;10.63;;;;;;;16.98;77.03;102063.94;5030297;28;20038;-89
2023/09/25 09:39:44;;;;;;;17.55;11.38;;;;;;;16.96;77.45;102060.63;5019055;28;20026;-91
2023/09/25 09:42:11;;;;;;;17.05;10.60;;;;;;;16.94;76.75;102052.56;5016287;28;20033;-87
2023/09/25 09:44:36;;;;;;;18.30;11.10;;;;;;;17.01;76.15;102054.91;5019731;28;20061;-90
2023/09/25 09:47:13;;;;;;;18.95;11.20;;;;;;;17.08;77.64;102069.25;5022399;28;20293;-89
2023/09/25 09:49:41;;;;;;;24.38;12.52;;;;;;;17.18;76.45;102061.72;5037587;28;20029;-89
2023/09/25 09:52:08;;;;;;;20.27;11.13;;;;;;;17.27;76.70;102069.03;5037986;28;20038;-88
2023/09/25 09:54:42;;;;;;;17.83;10.90;;;;;;;17.38;76.47;102069.53;5036005;28;20033;-88
2023/09/25 09:57:08;;;;;;;17.10;10.90;;;;;;;17.49;77.69;102069.25;5042360;28;20029;-87
2023/09/25 09:59:34;;;;;;;15.48;10.40;;;;;;;17.57;74.96;102080.47;5055984;28;20336;-89
2023/09/25 10:02:03;;;;;;;16.15;10.20;;;;;;;17.61;74.34;102083.47;5053789;28;20037;-86
2023/09/25 10:04:29;;;;;;;16.08;10.27;;;;;;;17.60;74.46;102091.00;5052486;28;20017;-86
2023/09/25 10:07:05;;;;;;;17.38;10.70;;;;;;;17.62;76.80;102094.31;5054737;28;20056;-90
2023/09/25 10:09:32;;;;;;;14.80;10.40;;;;;;;17.67;75.51;102092.50;5039731;28;20014;-89
2023/09/25 10:12:00;;;;;;;15.68;10.30;;;;;;;17.75;76.11;102084.16;5055651;28;20029;-88
2023/09/25 10:14:43;;;;;;;17.58;10.60;;;;;;;17.87;74.83;102079.91;5048041;28;20085;-89
2023/09/25 10:17:10;;;;;;;15.93;10.57;;;;;;;17.97;75.09;102074.03;5048473;28;20022;-90
2023/09/25 10:19:50;;;;;;;17.38;10.80;;;;;;;18.07;76.22;102076.50;5039435;28;20034;-90
2023/09/25 10:22:26;;;;;;;17.85;10.82;;;;;;;18.12;74.76;102075.53;5035505;28;20060;-90
2023/09/25 10:25:14;;;;;;;15.77;10.50;;;;;;;18.18;76.17;102074.19;5030182;28;20571;-90
2023/09/25 10:27:45;;;;;;;17.85;10.43;;;;;;;18.17;74.24;102061.34;5037007;28;20139;-89
2023/09/25 10:30:16;;;;;;;16.42;10.30;;;;;;;18.18;73.26;102060.19;5022080;28;20029;-89
2023/09/25 10:32:55;;;;;;;15.75;10.20;;;;;;;18.25;73.21;102068.13;5025610;28;20021;-90
2023/09/25 10:35:42;;;;;;;15.63;10.10;;;;;;;18.35;74.07;102064.16;5032086;28;20132;-87
2023/09/25 10:38:15;;;;;;;16.52;10.38;;;;;;;18.37;74.16;102073.06;5024248;28;20530;-91
2023/09/25 10:40:50;;;;;;;14.63;10.27;;;;;;;18.42;73.40;102064.47;5024358;28;20073;-90
2023/09/25 10:43:20;;;;;;;16.45;10.75;;;;;;;18.48;72.02;102079.13;5024196;28;20490;-89
2023/09/25 10:45:46;;;;;;;15.85;10.30;;;;;;;18.50;72.02;102079.63;5033432;28;20060;-90
2023/09/25 10:48:13;;;;;;;15.55;10.40;;;;;;;18.59;73.27;102083.25;5019403;28;20069;-90
2023/09/25 10:50:40;;;;;;;15.07;10.30;;;;;;;18.62;73.06;102057.38;5020525;28;20041;-87
2023/09/25 10:53:07;;;;;;;17.17;10.90;;;;;;;18.71;73.77;102062.94;5018831;28;20030;-93
2023/09/25 10:55:33;;;;;;;16.08;10.63;;;;;;;18.77;72.13;102061.63;5016646;28;20048;-87
2023/09/25 10:58:00;;;;;;;16.40;10.40;;;;;;;18.75;73.45;102049.94;5016144;28;20460;-88
2023/09/25 11:00:26;;;;;;;15.35;10.02;;;;;;;18.84;74.19;102044.31;5020235;28;20038;-87
2023/09/25 11:02:53;;;;;;;18.13;10.82;;;;;;;18.88;74.23;102036.88;5016407;28;20358;-91
2023/09/25 11:05:18;;;;;;;15.90;10.05;;;;;;;18.99;73.61;102051.38;5017623;28;20439;-87
2023/09/25 11:07:47;;;;;;;15.48;10.30;;;;;;;18.98;72.08;102056.16;5016843;28;20022;-88
2023/09/25 11:10:16;;;;;;;16.95;10.50;;;;;;;18.97;72.45;102060.13;5016882;28;20116;-87